Time;durP1;ratioP1;P1;durP2;ratioP2;P2;SDS_P1;SDS_P2;PMS_P1;PMS_P2;Temp;Humidity;BMP_temperature;BMP_pressure;BME280_temperature;BME280_humidity;BME280_pressure;Samples;Min_cycle;Max_cycle;Signal;HPM_P1;HPM_P2
2022/10/29 00:01:24;;;;;;;22.02;13.00;;;;;;;14.19;100.00;102045.50;5088255;28;20122;-81
2022/10/29 00:03:49;;;;;;;26.08;13.48;;;;;;;14.20;100.00;102045.38;5071498;28;20112;-82
2022/10/29 00:06:14;;;;;;;19.98;13.40;;;;;;;14.16;100.00;102041.25;5082139;28;20196;-82
2022/10/29 00:08:41;;;;;;;27.77;14.10;;;;;;;14.12;100.00;102039.78;5068603;28;20074;-82
2022/10/29 00:11:15;;;;;;;27.02;12.98;;;;;;;14.09;100.00;102034.72;5101533;28;20056;-81
2022/10/29 00:13:41;;;;;;;20.73;13.32;;;;;;;14.05;100.00;102027.94;5069108;28;20481;-81
2022/10/29 00:16:19;;;;;;;21.92;13.25;;;;;;;14.07;100.00;102032.16;5067230;28;20035;-82
2022/10/29 00:18:44;;;;;;;26.13;13.02;;;;;;;14.00;100.00;102030.88;5065575;28;20416;-82
2022/10/29 00:21:15;;;;;;;24.02;13.60;;;;;;;13.97;100.00;102030.25;5064916;28;20029;-82
2022/10/29 00:23:41;;;;;;;20.85;13.60;;;;;;;13.94;100.00;102041.03;5068025;28;20053;-82
2022/10/29 00:26:07;;;;;;;23.67;13.43;;;;;;;13.93;100.00;102034.06;5069044;28;20468;-81
2022/10/29 00:28:33;;;;;;;21.42;12.98;;;;;;;13.90;100.00;102034.28;5068697;28;20024;-82
2022/10/29 00:31:03;;;;;;;23.88;13.23;;;;;;;13.86;100.00;102043.38;5083065;28;20048;-82
2022/10/29 00:33:29;;;;;;;24.85;12.80;;;;;;;13.90;100.00;102042.22;5067444;28;20052;-82
2022/10/29 00:36:00;;;;;;;23.58;13.85;;;;;;;13.90;100.00;102042.22;5061720;28;20048;-81
2022/10/29 00:38:26;;;;;;;30.63;14.52;;;;;;;13.90;100.00;102042.22;5083605;28;20082;-82
2022/10/29 00:40:53;;;;;;;24.48;13.65;;;;;;;13.85;100.00;102039.03;5069075;28;20024;-82
2022/10/29 00:43:21;;;;;;;23.58;13.05;;;;;;;13.83;100.00;102039.16;5068223;28;20021;-82
2022/10/29 00:45:58;;;;;;;20.45;12.98;;;;;;;13.84;100.00;102046.13;5067339;28;20071;-82
2022/10/29 00:48:26;;;;;;;18.63;12.43;;;;;;;13.75;100.00;102052.06;5069184;28;20107;-82
2022/10/29 00:50:53;;;;;;;24.75;13.18;;;;;;;13.74;100.00;102053.84;5068901;28;20031;-82
2022/10/29 00:53:22;;;;;;;21.35;12.32;;;;;;;13.72;100.00;102057.56;5095405;28;20020;-81
2022/10/29 00:55:48;;;;;;;22.60;13.10;;;;;;;13.68;100.00;102048.97;5076110;28;20082;-82
2022/10/29 00:58:13;;;;;;;19.30;12.80;;;;;;;13.70;100.00;102054.16;5104012;28;20032;-81
2022/10/29 01:00:39;;;;;;;21.42;12.65;;;;;;;13.67;100.00;102052.56;5091833;28;20480;-81
2022/10/29 01:03:05;;;;;;;27.27;12.70;;;;;;;13.65;100.00;102054.47;5078961;28;20029;-81
2022/10/29 01:05:33;;;;;;;23.15;13.07;;;;;;;13.67;100.00;102041.16;5072319;28;20032;-81
2022/10/29 01:07:59;;;;;;;24.13;13.75;;;;;;;13.69;100.00;102042.75;5072365;28;20032;-81
2022/10/29 01:10:39;;;;;;;28.73;16.48;;;;;;;13.69;100.00;102036.59;5069381;28;20025;-81
2022/10/29 01:13:34;;;;;;;27.90;15.63;;;;;;;13.72;100.00;102037.25;5069262;28;20495;-82
2022/10/29 01:16:27;;;;;;;24.58;15.43;;;;;;;13.73;100.00;102031.00;5067245;28;20040;-82
2022/10/29 01:19:10;;;;;;;30.70;15.75;;;;;;;13.73;100.00;102022.22;5071820;28;20017;-81
2022/10/29 01:21:39;;;;;;;30.95;15.68;;;;;;;13.73;100.00;102011.63;5104372;28;20422;-82
2022/10/29 01:24:18;;;;;;;28.08;16.50;;;;;;;13.70;100.00;102010.06;5070530;28;20082;-82
2022/10/29 01:26:57;;;;;;;27.77;16.30;;;;;;;13.69;100.00;102021.59;5052608;28;20577;-81
2022/10/29 01:29:47;;;;;;;26.30;15.73;;;;;;;13.69;100.00;102021.59;5070300;28;20032;-82
2022/10/29 01:32:30;;;;;;;24.08;15.68;;;;;;;13.59;100.00;102019.63;5071698;28;20021;-82
2022/10/29 01:35:09;;;;;;;26.40;15.65;;;;;;;13.58;100.00;102018.78;5071372;28;20103;-82
2022/10/29 01:37:46;;;;;;;28.70;16.05;;;;;;;13.50;100.00;102005.25;5071953;28;20103;-82
2022/10/29 01:40:20;;;;;;;24.42;14.55;;;;;;;13.42;100.00;102018.16;5070676;28;20058;-82
2022/10/29 01:42:51;;;;;;;24.27;14.00;;;;;;;13.38;100.00;102006.94;5067842;28;20125;-82
2022/10/29 01:45:47;;;;;;;23.65;14.57;;;;;;;13.35;100.00;102009.78;5066572;28;20052;-82
2022/10/29 01:48:18;;;;;;;22.58;13.27;;;;;;;13.37;100.00;101999.09;5067541;28;20039;-82
2022/10/29 01:50:48;;;;;;;24.80;14.40;;;;;;;13.31;100.00;101988.94;5072374;28;20217;-82
2022/10/29 01:53:15;;;;;;;26.95;14.30;;;;;;;13.27;100.00;101983.03;5104815;28;20545;-82
2022/10/29 01:55:40;;;;;;;22.52;14.50;;;;;;;13.26;100.00;101975.19;5077496;28;20024;-82
2022/10/29 01:58:08;;;;;;;25.50;14.77;;;;;;;13.23;100.00;101973.63;5090197;28;20020;-82
2022/10/29 02:00:56;;;;;;;28.80;14.68;;;;;;;13.24;100.00;101982.38;5060620;28;20440;-82
2022/10/29 02:03:42;;;;;;;22.10;13.65;;;;;;;13.23;100.00;101980.69;5071659;28;20020;-82
2022/10/29 02:06:21;;;;;;;21.65;14.68;;;;;;;13.25;100.00;101978.78;5084180;28;20480;-82
2022/10/29 02:08:57;;;;;;;28.50;14.98;;;;;;;13.19;100.00;101980.03;5090299;28;20548;-83
2022/10/29 02:11:32;;;;;;;22.50;14.50;;;;;;;13.16;100.00;101986.34;5089881;28;20407;-82
2022/10/29 02:14:06;;;;;;;23.90;15.35;;;;;;;13.14;100.00;101982.94;5090044;28;20020;-82
2022/10/29 02:16:32;;;;;;;29.70;16.85;;;;;;;13.24;100.00;101977.09;5070961;28;20032;-82
2022/10/29 02:18:58;;;;;;;28.73;16.38;;;;;;;13.23;100.00;101965.69;5097707;28;20094;-83
2022/10/29 02:21:24;;;;;;;25.77;15.52;;;;;;;13.24;100.00;101972.66;5071168;28;20039;-82
2022/10/29 02:23:49;;;;;;;29.58;17.48;;;;;;;13.30;100.00;101968.75;5071020;28;20025;-82
2022/10/29 02:26:15;;;;;;;35.15;17.67;;;;;;;13.33;100.00;101965.91;5070871;28;20064;-82
2022/10/29 02:28:41;;;;;;;23.92;16.75;;;;;;;13.30;100.00;101960.81;5103350;28;20012;-82
2022/10/29 02:31:07;;;;;;;27.60;15.85;;;;;;;13.29;100.00;101961.78;5068776;28;20033;-82
2022/10/29 02:33:33;;;;;;;27.98;16.05;;;;;;;13.27;100.00;101955.75;5063690;28;20485;-82
2022/10/29 02:35:58;;;;;;;26.00;15.70;;;;;;;13.25;100.00;101941.78;5081119;28;20028;-83
2022/10/29 02:38:23;;;;;;;27.63;16.83;;;;;;;13.17;100.00;101935.19;5089308;28;20074;-82
2022/10/29 02:40:48;;;;;;;24.42;14.98;;;;;;;13.14;100.00;101945.94;5091108;28;20076;-83
2022/10/29 02:43:14;;;;;;;26.55;16.00;;;;;;;13.10;100.00;101944.47;5090890;28;20365;-83
2022/10/29 02:45:39;;;;;;;24.48;15.02;;;;;;;13.06;100.00;101945.63;5081286;28;20053;-83
2022/10/29 02:48:05;;;;;;;24.13;15.35;;;;;;;13.02;100.00;101952.06;5071430;28;20105;-83
2022/10/29 02:50:30;;;;;;;25.15;14.23;;;;;;;12.98;100.00;101950.56;5062646;28;20115;-83
2022/10/29 02:52:59;;;;;;;23.50;14.00;;;;;;;12.92;100.00;101945.69;5070512;28;20052;-82
2022/10/29 02:55:24;;;;;;;24.42;13.73;;;;;;;12.92;100.00;101945.69;5073988;28;20419;-83
2022/10/29 02:57:49;;;;;;;23.10;14.43;;;;;;;12.85;100.00;101939.97;5089176;28;20016;-83
2022/10/29 03:00:15;;;;;;;22.38;14.10;;;;;;;12.86;100.00;101946.13;5090991;28;20734;-83
2022/10/29 03:02:40;;;;;;;19.00;13.68;;;;;;;12.82;100.00;101941.97;5088837;28;20545;-83
2022/10/29 03:05:07;;;;;;;23.13;14.18;;;;;;;12.79;100.00;101940.34;5073691;28;20537;-82
2022/10/29 03:07:36;;;;;;;24.23;13.88;;;;;;;12.79;100.00;101934.22;5062042;28;20028;-83
2022/10/29 03:10:06;;;;;;;22.27;14.85;;;;;;;12.75;100.00;101927.47;5069283;28;20131;-83
2022/10/29 03:12:31;;;;;;;20.25;14.00;;;;;;;12.74;100.00;101931.06;5068500;28;20024;-83
2022/10/29 03:14:57;;;;;;;24.10;14.15;;;;;;;12.75;100.00;101936.22;5070767;28;20035;-83
2022/10/29 03:17:22;;;;;;;22.38;14.30;;;;;;;12.76;100.00;101923.88;5071107;28;20024;-83
2022/10/29 03:19:48;;;;;;;23.33;15.20;;;;;;;12.72;100.00;101922.38;5102520;28;20038;-83
2022/10/29 03:22:14;;;;;;;22.92;14.20;;;;;;;12.72;100.00;101922.38;5098095;28;20569;-83
2022/10/29 03:24:39;;;;;;;25.02;13.82;;;;;;;12.68;100.00;101915.63;5054110;28;20021;-83
2022/10/29 03:27:04;;;;;;;23.08;13.48;;;;;;;12.70;100.00;101921.63;5062536;28;20681;-83
2022/10/29 03:29:30;;;;;;;19.63;13.27;;;;;;;12.66;100.00;101918.34;5068286;28;20024;-84
2022/10/29 03:31:58;;;;;;;21.95;14.25;;;;;;;12.64;100.00;101919.41;5070126;28;20024;-83
2022/10/29 03:34:23;;;;;;;23.10;13.73;;;;;;;12.65;100.00;101915.81;5067947;28;20020;-83
2022/10/29 03:36:49;;;;;;;21.58;13.52;;;;;;;12.60;100.00;101910.84;5068958;28;20059;-83
2022/10/29 03:39:14;;;;;;;27.13;14.57;;;;;;;12.61;100.00;101907.25;5068943;28;20021;-84
2022/10/29 03:41:39;;;;;;;24.70;14.00;;;;;;;12.63;100.00;101905.34;5101555;28;20546;-83
2022/10/29 03:44:05;;;;;;;24.10;14.00;;;;;;;12.66;100.00;101901.66;5063449;28;20033;-83
2022/10/29 03:46:30;;;;;;;24.58;14.15;;;;;;;12.65;100.00;101899.97;5067780;28;20028;-83
2022/10/29 03:48:56;;;;;;;24.45;13.82;;;;;;;12.70;100.00;101901.34;5069586;28;20115;-83
2022/10/29 03:51:21;;;;;;;22.55;14.05;;;;;;;12.71;100.00;101900.41;5068100;28;20028;-84
2022/10/29 03:53:46;;;;;;;23.80;14.73;;;;;;;12.71;100.00;101905.69;5068780;28;20031;-85
2022/10/29 03:56:12;;;;;;;29.35;15.38;;;;;;;12.77;100.00;101893.88;5078420;28;20024;-85
2022/10/29 03:58:37;;;;;;;26.00;15.57;;;;;;;12.83;100.00;101882.94;5068680;28;20031;-83
2022/10/29 04:01:05;;;;;;;30.63;16.73;;;;;;;12.86;100.00;101882.72;5066452;28;20040;-83
2022/10/29 04:03:32;;;;;;;28.30;16.65;;;;;;;12.87;100.00;101876.50;5084838;28;20055;-83
2022/10/29 04:06:00;;;;;;;28.33;14.73;;;;;;;12.80;100.00;101877.81;5068959;28;20480;-83
2022/10/29 04:08:26;;;;;;;25.67;14.38;;;;;;;12.79;100.00;101871.69;5101814;28;20446;-83
2022/10/29 04:10:51;;;;;;;21.83;13.57;;;;;;;12.78;100.00;101875.28;5070267;28;20115;-83
2022/10/29 04:13:17;;;;;;;25.75;13.50;;;;;;;12.73;100.00;101877.38;5068295;28;20100;-84
2022/10/29 04:15:43;;;;;;;23.65;13.15;;;;;;;12.71;100.00;101867.88;5061997;28;20051;-84
2022/10/29 04:18:09;;;;;;;25.58;14.27;;;;;;;12.69;100.00;101867.97;5069664;28;20060;-83
2022/10/29 04:20:36;;;;;;;21.92;13.57;;;;;;;12.69;100.00;101857.41;5068872;28;20032;-83
2022/10/29 04:23:02;;;;;;;22.17;13.70;;;;;;;12.70;100.00;101859.09;5068404;28;20400;-84
2022/10/29 04:25:27;;;;;;;23.92;13.23;;;;;;;12.68;100.00;101862.81;5068033;28;20039;-83
2022/10/29 04:27:54;;;;;;;23.45;13.88;;;;;;;12.73;100.00;101861.53;5069400;28;20028;-83
2022/10/29 04:30:20;;;;;;;25.75;14.32;;;;;;;12.72;100.00;101856.38;5100554;28;20442;-84
2022/10/29 04:32:45;;;;;;;28.88;15.73;;;;;;;12.75;100.00;101856.16;5062296;28;20032;-84
2022/10/29 04:35:10;;;;;;;31.70;15.15;;;;;;;12.80;100.00;101851.41;5068506;28;20082;-84
2022/10/29 04:37:36;;;;;;;31.67;15.95;;;;;;;12.85;100.00;101844.06;5068324;28;20027;-84
2022/10/29 04:40:01;;;;;;;27.75;16.10;;;;;;;12.86;100.00;101848.38;5100583;28;20055;-84
2022/10/29 04:42:26;;;;;;;27.30;16.27;;;;;;;12.90;100.00;101852.50;5068819;28;20439;-84
2022/10/29 04:44:52;;;;;;;31.27;16.15;;;;;;;12.90;100.00;101856.94;5068306;28;20103;-84
2022/10/29 04:47:17;;;;;;;31.70;16.92;;;;;;;12.85;100.00;101855.47;5068467;28;20480;-84
2022/10/29 04:49:42;;;;;;;25.45;15.23;;;;;;;12.87;100.00;101858.00;5068153;28;20070;-84
2022/10/29 04:52:08;;;;;;;24.33;14.68;;;;;;;12.87;100.00;101858.00;5057036;28;20029;-85
2022/10/29 04:54:33;;;;;;;26.60;14.65;;;;;;;12.80;100.00;101857.53;5068385;28;20012;-84
2022/10/29 04:56:58;;;;;;;21.52;14.38;;;;;;;12.79;100.00;101855.84;5078746;28;20277;-84
2022/10/29 04:59:23;;;;;;;30.92;16.90;;;;;;;12.79;100.00;101847.06;5101373;28;20024;-84
2022/10/29 05:01:49;;;;;;;26.90;15.20;;;;;;;12.78;100.00;101842.75;5069053;28;20082;-84
2022/10/29 05:04:14;;;;;;;27.08;15.02;;;;;;;12.73;100.00;101845.69;5067448;28;20043;-84
2022/10/29 05:06:39;;;;;;;23.52;14.80;;;;;;;12.75;100.00;101853.50;5069605;28;20024;-84
2022/10/29 05:09:05;;;;;;;23.10;14.75;;;;;;;12.70;100.00;101852.97;5063231;28;20052;-84
2022/10/29 05:11:30;;;;;;;26.67;15.30;;;;;;;12.67;100.00;101846.13;5068553;28;20025;-84
2022/10/29 05:13:56;;;;;;;25.67;15.00;;;;;;;12.70;100.00;101839.78;5077152;28;20020;-84
2022/10/29 05:16:21;;;;;;;21.58;14.25;;;;;;;12.70;100.00;101840.63;5071092;28;20067;-84
2022/10/29 05:18:46;;;;;;;20.55;13.65;;;;;;;12.65;100.00;101836.59;5068931;28;20128;-84
2022/10/29 05:21:12;;;;;;;26.77;15.38;;;;;;;12.65;100.00;101829.53;5069400;28;20099;-84
2022/10/29 05:23:37;;;;;;;21.48;14.93;;;;;;;12.65;100.00;101833.97;5101508;28;20515;-84
2022/10/29 05:26:03;;;;;;;23.02;14.40;;;;;;;12.64;100.00;101843.69;5064502;28;20024;-84
2022/10/29 05:28:28;;;;;;;28.38;15.05;;;;;;;12.67;100.00;101829.44;5068403;28;20031;-84
2022/10/29 05:30:53;;;;;;;23.02;14.73;;;;;;;12.63;100.00;101822.66;5068322;28;20111;-84
2022/10/29 05:33:21;;;;;;;25.42;15.90;;;;;;;12.68;100.00;101831.13;5067172;28;20027;-84
2022/10/29 05:35:47;;;;;;;25.20;15.90;;;;;;;12.71;100.00;101820.34;5068743;28;20515;-84
2022/10/29 05:38:14;;;;;;;28.00;16.70;;;;;;;12.72;100.00;101822.03;5100149;28;20064;-84
2022/10/29 05:40:43;;;;;;;27.58;15.45;;;;;;;12.72;100.00;101822.03;5063928;28;20506;-84
2022/10/29 05:43:12;;;;;;;25.00;16.42;;;;;;;12.75;100.00;101819.19;5047570;28;20079;-84
2022/10/29 05:45:38;;;;;;;27.83;16.90;;;;;;;12.75;100.00;101817.38;5059748;28;20038;-84
2022/10/29 05:48:07;;;;;;;33.35;18.00;;;;;;;12.81;100.00;101813.53;5103249;28;20028;-85
2022/10/29 05:50:33;;;;;;;32.85;18.50;;;;;;;12.83;100.00;101808.97;5070170;28;20024;-85
2022/10/29 05:53:01;;;;;;;31.40;18.42;;;;;;;12.85;100.00;101805.28;5071461;28;20024;-84
2022/10/29 05:55:28;;;;;;;32.58;18.42;;;;;;;12.82;100.00;101807.28;5106102;27;20043;-84
2022/10/29 05:58:01;;;;;;;32.10;17.55;;;;;;;12.85;100.00;101807.06;5090080;28;20095;-84
2022/10/29 06:00:29;;;;;;;24.80;16.27;;;;;;;12.79;100.00;101804.81;5051123;28;20036;-85
2022/10/29 06:02:57;;;;;;;28.35;17.08;;;;;;;12.86;100.00;101798.19;5052290;28;20492;-84
2022/10/29 06:05:23;;;;;;;23.55;15.80;;;;;;;12.84;100.00;101794.81;5064681;28;20046;-84
2022/10/29 06:07:59;;;;;;;26.05;16.25;;;;;;;12.86;100.00;101799.03;5071555;28;20016;-84
2022/10/29 06:10:26;;;;;;;25.02;16.35;;;;;;;12.87;100.00;101799.88;5072123;28;20131;-84
2022/10/29 06:12:52;;;;;;;28.15;16.35;;;;;;;12.87;100.00;101797.25;5072456;28;20035;-84
2022/10/29 06:15:18;;;;;;;28.17;16.35;;;;;;;12.88;100.00;101819.22;5071166;28;20056;-84
2022/10/29 06:17:44;;;;;;;29.02;17.33;;;;;;;12.91;100.00;101827.78;5065858;28;20036;-84
2022/10/29 06:20:12;;;;;;;27.92;17.27;;;;;;;12.89;100.00;101828.84;5087111;28;20042;-85
2022/10/29 06:22:37;;;;;;;28.35;17.35;;;;;;;12.93;100.00;101825.88;5069226;28;20054;-85
2022/10/29 06:25:04;;;;;;;25.48;15.85;;;;;;;12.94;100.00;101829.38;5070561;28;20036;-84
2022/10/29 06:27:29;;;;;;;22.52;15.07;;;;;;;12.95;100.00;101828.41;5067627;28;20286;-84
2022/10/29 06:29:54;;;;;;;25.45;16.55;;;;;;;12.95;100.00;101823.97;5070682;28;20112;-84
2022/10/29 06:32:20;;;;;;;30.45;17.40;;;;;;;12.94;100.00;101824.94;5069862;28;20028;-84
2022/10/29 06:34:45;;;;;;;33.72;17.95;;;;;;;12.97;100.00;101816.78;5101965;28;20025;-84
2022/10/29 06:37:10;;;;;;;27.77;16.55;;;;;;;12.96;100.00;101825.66;5074449;28;20388;-84
2022/10/29 06:39:36;;;;;;;23.77;16.05;;;;;;;12.97;100.00;101821.22;5090114;28;20137;-84
2022/10/29 06:42:02;;;;;;;31.48;18.42;;;;;;;13.03;100.00;101818.16;5083701;28;20491;-84
2022/10/29 06:44:27;;;;;;;27.85;17.52;;;;;;;12.94;100.00;101827.56;5068881;28;20539;-84
2022/10/29 06:46:52;;;;;;;30.15;17.52;;;;;;;12.90;100.00;101826.09;5066565;28;20134;-84
2022/10/29 06:49:19;;;;;;;29.95;17.70;;;;;;;12.91;100.00;101832.22;5064686;28;20491;-84
2022/10/29 06:51:44;;;;;;;25.05;17.48;;;;;;;12.92;100.00;101840.03;5056442;28;20063;-84
2022/10/29 06:54:09;;;;;;;28.17;17.25;;;;;;;12.93;100.00;101831.16;5074945;28;20406;-84
2022/10/29 06:56:35;;;;;;;28.52;17.95;;;;;;;12.98;100.00;101842.25;5072878;28;20119;-84
2022/10/29 06:59:00;;;;;;;33.65;18.38;;;;;;;12.99;100.00;101838.66;5069050;28;20024;-84
2022/10/29 07:01:27;;;;;;;33.90;19.90;;;;;;;13.09;100.00;101834.44;5070598;28;20032;-84
2022/10/29 07:03:53;;;;;;;36.50;19.13;;;;;;;13.17;100.00;101832.13;5088228;28;20046;-84
2022/10/29 07:06:18;;;;;;;28.45;19.17;;;;;;;13.25;100.00;101836.91;5074966;28;20056;-84
2022/10/29 07:08:43;;;;;;;36.38;19.45;;;;;;;13.29;100.00;101832.25;5064545;28;20089;-84
2022/10/29 07:11:11;;;;;;;34.20;19.45;;;;;;;13.36;100.00;101828.22;5050161;28;20028;-84
2022/10/29 07:13:37;;;;;;;34.40;19.55;;;;;;;13.42;100.00;101817.22;5081016;28;20039;-84
2022/10/29 07:16:02;;;;;;;31.30;17.85;;;;;;;13.48;100.00;101814.16;5050896;28;20389;-84
2022/10/29 07:18:27;;;;;;;31.38;18.25;;;;;;;13.57;100.00;101810.84;5050223;28;20029;-84
2022/10/29 07:20:53;;;;;;;40.65;19.38;;;;;;;13.66;100.00;101810.22;5051132;28;20035;-84
2022/10/29 07:23:18;;;;;;;33.92;18.25;;;;;;;13.73;100.00;101805.31;5063854;28;20049;-84
2022/10/29 07:25:44;;;;;;;34.10;17.17;;;;;;;13.78;100.00;101793.44;5082398;28;20033;-84
2022/10/29 07:28:16;;;;;;;33.47;17.42;;;;;;;13.84;100.00;101786.88;5065936;28;20473;-84
2022/10/29 07:30:43;;;;;;;30.23;17.95;;;;;;;13.88;100.00;101788.34;5069852;28;20029;-84
2022/10/29 07:33:11;;;;;;;26.58;16.92;;;;;;;13.95;100.00;101799.31;5082883;28;20028;-83
2022/10/29 07:35:37;;;;;;;32.28;17.13;;;;;;;13.98;100.00;101799.94;5068017;28;20036;-85
2022/10/29 07:38:05;;;;;;;33.05;17.27;;;;;;;14.03;100.00;101796.97;5069434;28;20031;-84
2022/10/29 07:40:30;;;;;;;29.63;15.82;;;;;;;14.08;100.00;101790.38;5066504;28;20388;-84
2022/10/29 07:42:59;;;;;;;30.77;16.33;;;;;;;14.13;100.00;101786.53;5077139;28;20047;-84
2022/10/29 07:45:24;;;;;;;35.83;16.13;;;;;;;14.17;100.00;101794.16;5090368;28;20115;-86
2022/10/29 07:48:00;;;;;;;34.50;17.27;;;;;;;14.24;100.00;101794.53;5089547;28;20080;-86
2022/10/29 07:50:27;;;;;;;38.75;17.27;;;;;;;14.31;100.00;101790.47;5089951;28;20483;-86
2022/10/29 07:52:53;;;;;;;33.75;15.52;;;;;;;14.33;100.00;101794.69;5087622;28;20487;-86
2022/10/29 07:55:18;;;;;;;34.63;15.52;;;;;;;14.36;100.00;101805.03;5089247;28;20051;-86
2022/10/29 07:57:43;;;;;;;31.27;15.68;;;;;;;14.37;100.00;101801.44;5077827;28;20078;-86
2022/10/29 08:00:11;;;;;;;27.95;15.77;;;;;;;14.47;100.00;101792.84;5049020;28;20025;-86
2022/10/29 08:02:37;;;;;;;29.05;15.43;;;;;;;14.53;100.00;101795.03;5070239;28;20028;-86
2022/10/29 08:05:02;;;;;;;33.28;15.80;;;;;;;14.64;100.00;101787.13;5077270;28;20149;-87
2022/10/29 08:07:28;;;;;;;26.38;14.30;;;;;;;14.69;100.00;101790.25;5068006;28;20024;-84
2022/10/29 08:09:53;;;;;;;23.35;14.13;;;;;;;14.81;100.00;101789.34;5068658;28;20140;-84
2022/10/29 08:12:18;;;;;;;29.17;14.30;;;;;;;14.92;100.00;101786.69;5069833;28;20029;-84
2022/10/29 08:14:44;;;;;;;31.05;13.75;;;;;;;14.98;100.00;101786.22;5068324;28;20508;-84
2022/10/29 08:17:12;;;;;;;27.95;13.20;;;;;;;15.04;100.00;101791.03;5077719;28;20031;-84
2022/10/29 08:19:37;;;;;;;24.92;13.73;;;;;;;15.12;100.00;101779.00;5070080;28;20024;-84
2022/10/29 08:22:03;;;;;;;28.77;13.00;;;;;;;15.20;100.00;101781.88;5068643;28;20055;-84
2022/10/29 08:24:28;;;;;;;21.85;12.60;;;;;;;15.28;100.00;101772.38;5068357;28;20025;-84
2022/10/29 08:26:53;;;;;;;27.63;13.25;;;;;;;15.31;100.00;101776.59;5069083;28;20031;-84
2022/10/29 08:29:18;;;;;;;22.75;13.18;;;;;;;15.33;100.00;101777.31;5067022;28;20047;-84
2022/10/29 08:31:44;;;;;;;23.23;12.50;;;;;;;15.41;100.00;101771.41;5077737;28;20031;-84
2022/10/29 08:34:12;;;;;;;27.05;12.80;;;;;;;15.51;100.00;101782.97;5049077;28;20021;-84
2022/10/29 08:36:37;;;;;;;24.67;11.90;;;;;;;15.56;100.00;101784.28;5060530;28;20036;-84
2022/10/29 08:39:03;;;;;;;24.23;12.07;;;;;;;15.63;100.00;101782.88;5049100;28;20039;-84
2022/10/29 08:41:53;;;;;;;25.90;11.55;;;;;;;15.75;100.00;101793.47;5049053;28;20231;-84
2022/10/29 08:44:24;;;;;;;25.25;11.75;;;;;;;15.86;100.00;101780.16;5063947;28;20057;-83
2022/10/29 08:47:20;;;;;;;18.42;10.60;;;;;;;15.95;100.00;101782.91;5081195;28;20098;-84
2022/10/29 08:50:05;;;;;;;22.52;10.60;;;;;;;16.07;100.00;101778.41;5069985;28;20400;-83
2022/10/29 08:52:37;;;;;;;22.55;10.90;;;;;;;16.11;100.00;101781.66;5058996;28;20028;-83
2022/10/29 08:55:11;;;;;;;25.80;11.07;;;;;;;16.18;100.00;101781.03;5054474;28;20056;-83
2022/10/29 08:57:58;;;;;;;20.83;9.80;;;;;;;16.25;100.00;101774.22;5070760;28;20283;-83
2022/10/29 09:00:30;;;;;;;21.13;9.98;;;;;;;16.28;100.00;101773.13;5068202;28;20044;-83
2022/10/29 09:02:57;;;;;;;19.15;9.90;;;;;;;16.35;100.00;101773.47;5068859;28;20029;-83
2022/10/29 09:05:29;;;;;;;20.13;9.63;;;;;;;16.41;100.00;101765.84;5065950;28;20090;-83
2022/10/29 09:08:19;;;;;;;18.88;9.40;;;;;;;16.52;100.00;101770.25;5066483;28;20051;-83
2022/10/29 09:10:54;;;;;;;20.77;8.90;;;;;;;16.65;100.00;101760.25;5072292;28;20099;-83
2022/10/29 09:13:41;;;;;;;15.43;8.55;;;;;;;16.75;99.90;101763.84;5068803;28;20056;-82
2022/10/29 09:16:17;;;;;;;20.50;9.00;;;;;;;16.85;99.84;101767.41;5068527;28;20389;-82
2022/10/29 09:19:30;;;;;;;20.63;8.23;;;;;;;16.96;100.00;101768.31;5065456;28;20032;-82
2022/10/29 09:22:21;;;;;;;16.30;8.23;;;;;;;17.02;99.14;101765.13;5045994;28;20617;-82
2022/10/29 09:25:17;;;;;;;14.43;7.95;;;;;;;17.08;99.02;101773.41;5072301;28;21048;-82
2022/10/29 09:28:04;;;;;;;17.42;7.25;;;;;;;17.12;96.29;101760.66;5072931;28;20090;-82
2022/10/29 09:30:34;;;;;;;13.27;6.95;;;;;;;17.12;95.19;101753.53;5072607;28;20392;-83
2022/10/29 09:33:08;;;;;;;20.95;7.43;;;;;;;17.15;95.10;101747.09;5070824;28;20365;-82
2022/10/29 09:35:39;;;;;;;19.20;7.10;;;;;;;17.09;95.01;101753.81;5071942;28;20090;-82
2022/10/29 09:38:12;;;;;;;15.43;6.82;;;;;;;17.13;95.89;101744.59;5067332;28;20461;-82
2022/10/29 09:40:40;;;;;;;14.02;6.70;;;;;;;17.12;95.00;101747.38;5081741;28;20028;-82
2022/10/29 09:43:11;;;;;;;17.13;6.60;;;;;;;17.17;95.19;101751.31;5081582;28;20028;-82
2022/10/29 09:45:46;;;;;;;17.73;6.60;;;;;;;17.20;95.36;101743.06;5088948;28;20166;-82
2022/10/29 09:48:39;;;;;;;14.07;6.57;;;;;;;17.33;95.54;101745.50;5075700;28;20040;-82
2022/10/29 09:51:18;;;;;;;19.38;6.80;;;;;;;17.42;93.38;101734.03;5071382;28;20062;-82
2022/10/29 09:53:44;;;;;;;13.00;5.80;;;;;;;17.62;93.30;101739.44;5077345;28;20024;-82
2022/10/29 09:56:09;;;;;;;17.02;6.43;;;;;;;17.78;92.17;101721.13;5081352;28;20031;-82
2022/10/29 09:58:43;;;;;;;21.27;6.20;;;;;;;17.94;91.07;101728.53;5067221;28;20021;-82
2022/10/29 10:01:08;;;;;;;18.05;7.15;;;;;;;18.20;91.66;101720.84;5050765;28;20029;-82
2022/10/29 10:03:44;;;;;;;16.00;5.63;;;;;;;18.42;88.38;101723.22;5051475;28;20036;-83
2022/10/29 10:06:11;;;;;;;21.23;6.57;;;;;;;18.58;88.39;101722.59;5083457;28;20462;-81
2022/10/29 10:08:58;;;;;;;18.92;5.85;;;;;;;18.65;88.05;101718.41;5071478;28;20104;-81
2022/10/29 10:11:26;;;;;;;14.65;5.80;;;;;;;18.61;85.79;101715.16;5071800;28;20024;-81
2022/10/29 10:13:56;;;;;;;14.93;5.57;;;;;;;18.63;85.54;101717.72;5065268;28;20354;-88
2022/10/29 10:16:31;;;;;;;15.73;5.43;;;;;;;18.64;85.04;101719.41;5066079;28;20037;-86
2022/10/29 10:18:56;;;;;;;20.17;5.60;;;;;;;18.67;84.47;101711.09;5051421;28;20548;-86
2022/10/29 10:21:32;;;;;;;19.45;6.07;;;;;;;18.78;84.77;101716.25;5054122;28;20100;-84
2022/10/29 10:23:59;;;;;;;15.73;5.57;;;;;;;18.90;84.05;101714.28;5078381;28;20056;-87
2022/10/29 10:26:41;;;;;;;19.48;5.93;;;;;;;19.00;85.24;101710.56;5078173;28;20032;-87
2022/10/29 10:29:10;;;;;;;15.52;5.53;;;;;;;19.06;82.94;101712.66;5081369;28;20077;-86
2022/10/29 10:31:36;;;;;;;12.05;5.25;;;;;;;19.17;81.60;101714.28;5071854;28;20028;-86
2022/10/29 10:34:12;;;;;;;16.58;5.30;;;;;;;19.26;82.04;101710.75;5084771;28;20113;-86
2022/10/29 10:36:41;;;;;;;16.10;5.55;;;;;;;19.44;79.88;101712.59;5089017;28;20040;-86
2022/10/29 10:39:19;;;;;;;16.92;5.95;;;;;;;19.58;79.94;101707.59;5067244;28;20021;-85
2022/10/29 10:41:44;;;;;;;13.73;4.97;;;;;;;19.69;79.63;101704.72;5071032;28;20036;-86
2022/10/29 10:44:12;;;;;;;19.42;5.50;;;;;;;19.86;78.37;101702.22;5070669;28;20043;-86
2022/10/29 10:46:40;;;;;;;13.30;4.68;;;;;;;19.98;77.03;101700.97;5087377;28;20082;-86
2022/10/29 10:49:11;;;;;;;14.02;4.10;;;;;;;20.08;75.73;101704.41;5073516;28;20020;-85
2022/10/29 10:51:41;;;;;;;15.95;5.57;;;;;;;20.19;74.97;101693.47;5085079;28;20528;-85
2022/10/29 10:54:27;;;;;;;19.90;5.63;;;;;;;20.26;77.28;101685.66;5070022;28;20401;-85
2022/10/29 10:57:02;;;;;;;13.38;5.00;;;;;;;20.34;75.18;101683.06;5063519;28;20484;-86
2022/10/29 10:59:56;;;;;;;14.00;4.82;;;;;;;20.50;76.40;101683.22;5071976;28;20608;-86
2022/10/29 11:02:35;;;;;;;13.65;5.10;;;;;;;20.58;74.14;101675.22;5085785;28;20028;-84
2022/10/29 11:05:20;;;;;;;13.35;4.85;;;;;;;20.69;75.33;101683.97;5057732;28;20035;-86
2022/10/29 11:07:57;;;;;;;16.10;4.47;;;;;;;20.81;73.37;101685.38;5089373;28;20374;-86
2022/10/29 11:10:30;;;;;;;15.00;4.60;;;;;;;20.90;71.43;101679.09;5090768;28;20411;-85
2022/10/29 11:13:01;;;;;;;15.60;5.00;;;;;;;20.95;71.62;101676.75;5074898;28;20048;-86
2022/10/29 11:15:42;;;;;;;14.02;5.05;;;;;;;21.08;73.18;101677.13;5057975;28;20037;-85